Skip Navigation LinksHome page > Weather > Current weather Skip Navigation Links

Current Weather

Cherry Capital, Traverse City, Mich.

For information only: do not use for flight planning or navigation.
Latest weather
Observation time Saturday, October 19, 2019 5:53 AM EDT
Local time Saturday, October 19, 2019 6:14 AM EDT
Flight conditions Visual Meteorological Conditions
Winds
Wind direction South (180°)
Wind speed 5 mph
Visibility 10 mi.
Sky condition
Ceiling unlimited
Sky clear
Temperature 43°F
Dewpoint 36°F
Altimeter 29.90 in.Hg
Derived measurements
Relative humidity 76%
Wind chill 40°F
Density altitude -318 ft.
Sea-level pressure 29.91 in.Hg
Remarks
Fully automated report.
Automated weather observing station with precipitation discriminator.
METAR KTVC 190953Z AUTO 18004KT 10SM CLR 06/02 A2990 RMK AO2 SLP129 T00610022

Settings

Location code

InnerDrive.Weather 4.0.6770.0 Release CLR 4.0.30319.42000
Copyright ©2018 Inner Drive Technology. All rights reserved. Portions Copyright ©1986-2018 David Braverman.

Find weather

Site navigation


Skip Navigation Links

Place info

Page info

PayPal - The safer, easier way to pay online!

Return home.

Copyright ©2019 Inner Drive Technology. Purveyors of fine, hand-crafted computer software. Page printed 2019-10-19T10:14:23 UTC.